Time;durP1;ratioP1;P1;durP2;ratioP2;P2;SDS_P1;SDS_P2;PMS_P1;PMS_P2;Temp;Humidity;BMP_temperature;BMP_pressure;BME280_temperature;BME280_humidity;BME280_pressure;Samples;Min_cycle;Max_cycle;Signal;HPM_P1;HPM_P2
2021/10/30 00:00:30;;;;;;;6.65;0.80;;;;;;;12.09;76.01;98481.47;6328527;22;19995;-76
2021/10/30 00:02:55;;;;;;;7.65;0.82;;;;;;;12.13;75.19;98499.66;6327886;22;20007;-76
2021/10/30 00:05:23;;;;;;;8.07;1.50;;;;;;;12.03;75.55;98473.41;6285101;22;20878;-76
2021/10/30 00:07:48;;;;;;;3.20;1.02;;;;;;;12.02;75.95;98477.28;6306149;22;20025;-76
2021/10/30 00:10:15;;;;;;;1.42;0.50;;;;;;;12.11;76.13;98481.97;6275246;22;20007;-76
2021/10/30 00:12:42;;;;;;;0.68;0.40;;;;;;;12.08;76.11;98466.16;6305740;22;20010;-75
2021/10/30 00:15:09;;;;;;;4.63;0.93;;;;;;;12.12;75.66;98464.38;6277505;22;20015;-76
2021/10/30 00:17:35;;;;;;;4.05;0.90;;;;;;;12.14;75.34;98451.16;6306337;22;20004;-75
2021/10/30 00:20:00;;;;;;;3.20;1.25;;;;;;;12.14;75.32;98445.69;6276871;22;20007;-75
2021/10/30 00:22:38;;;;;;;2.83;1.02;;;;;;;12.16;75.03;98441.50;6276414;22;20006;-78
2021/10/30 00:25:05;;;;;;;5.18;0.60;;;;;;;12.18;75.51;98422.78;6274421;22;20069;-76
2021/10/30 00:27:30;;;;;;;6.82;0.90;;;;;;;12.34;75.35;98439.53;6278580;22;20003;-76
2021/10/30 00:29:56;;;;;;;1.70;0.30;;;;;;;12.29;75.06;98415.00;6301152;22;20003;-76
2021/10/30 00:32:21;;;;;;;4.53;0.77;;;;;;;12.40;74.74;98438.22;6250597;22;20003;-76
2021/10/30 00:34:47;;;;;;;5.53;1.42;;;;;;;12.38;74.96;98429.53;6275367;22;20007;-77
2021/10/30 00:37:12;;;;;;;8.23;0.88;;;;;;;12.33;74.67;98418.72;6249941;22;20015;-76
2021/10/30 00:39:39;;;;;;;2.47;0.43;;;;;;;12.37;74.73;98427.13;6277186;22;20080;-76
2021/10/30 00:42:04;;;;;;;5.82;1.00;;;;;;;12.30;74.70;98411.16;6276669;22;20007;-76
2021/10/30 00:44:30;;;;;;;3.47;0.77;;;;;;;12.28;74.34;98391.50;6303048;22;19999;-77
2021/10/30 00:46:56;;;;;;;4.75;0.73;;;;;;;12.29;74.87;98393.09;6248394;22;20011;-76
2021/10/30 00:49:24;;;;;;;7.50;1.08;;;;;;;12.29;75.04;98395.84;6302699;22;20022;-76
2021/10/30 00:51:54;;;;;;;4.55;0.77;;;;;;;12.28;74.57;98391.50;6302887;22;20010;-78
2021/10/30 00:54:21;;;;;;;8.52;1.42;;;;;;;12.27;74.30;98387.16;6274180;22;20323;-74
2021/10/30 00:56:48;;;;;;;7.57;1.35;;;;;;;12.25;74.65;98392.16;6276012;22;20011;-75
2021/10/30 00:59:16;;;;;;;2.17;0.75;;;;;;;12.26;75.06;98387.47;6275479;22;20003;-75
2021/10/30 01:01:43;;;;;;;5.43;0.70;;;;;;;12.22;74.92;98398.28;6302192;22;20353;-75
2021/10/30 01:04:09;;;;;;;6.68;1.45;;;;;;;12.28;74.88;98396.16;6301992;22;20149;-74
2021/10/30 01:06:37;;;;;;;2.75;0.75;;;;;;;12.31;74.81;98401.81;6303171;22;20421;-75
2021/10/30 01:09:04;;;;;;;11.35;1.40;;;;;;;12.31;75.15;98395.50;6277568;22;20007;-75
2021/10/30 01:11:30;;;;;;;5.40;1.60;;;;;;;12.35;75.21;98388.25;6251034;22;20093;-74
2021/10/30 01:13:56;;;;;;;3.25;0.70;;;;;;;12.36;74.21;98387.91;6303902;22;20034;-76
2021/10/30 01:16:21;;;;;;;6.28;0.90;;;;;;;12.37;74.20;98386.78;6277764;22;20082;-76
2021/10/30 01:18:47;;;;;;;2.15;0.93;;;;;;;12.38;74.11;98391.16;6304290;22;20039;-77
2021/10/30 01:21:22;;;;;;;6.93;1.77;;;;;;;12.39;74.04;98380.97;6275139;22;20548;-77
2021/10/30 01:23:48;;;;;;;2.42;0.85;;;;;;;12.46;74.75;98369.53;6305177;22;20261;-76
2021/10/30 01:26:13;;;;;;;1.80;0.77;;;;;;;12.47;74.27;98349.19;6304065;22;20023;-77
2021/10/30 01:28:40;;;;;;;8.60;1.00;;;;;;;12.54;74.59;98341.25;6297681;22;20060;-77
2021/10/30 01:31:05;;;;;;;2.03;0.90;;;;;;;12.59;73.79;98338.34;6252913;22;20015;-77
2021/10/30 01:33:31;;;;;;;1.00;0.65;;;;;;;12.61;73.99;98332.53;6276407;22;20103;-78
2021/10/30 01:36:05;;;;;;;4.88;0.75;;;;;;;12.60;74.25;98330.91;6311204;22;20025;-80
2021/10/30 01:38:30;;;;;;;2.53;0.55;;;;;;;12.58;74.53;98329.28;6292920;22;20023;-73
2021/10/30 01:40:56;;;;;;;5.43;1.58;;;;;;;12.59;74.38;98338.34;6273157;22;20007;-74
2021/10/30 01:43:21;;;;;;;2.22;0.65;;;;;;;12.54;74.35;98327.53;6224586;22;20141;-74
2021/10/30 01:45:47;;;;;;;3.92;0.98;;;;;;;12.46;74.74;98325.66;6273573;22;20022;-73
2021/10/30 01:48:17;;;;;;;5.93;0.85;;;;;;;12.55;74.80;98334.63;6276771;22;20003;-73
2021/10/30 01:50:43;;;;;;;5.35;1.27;;;;;;;12.53;75.26;98320.47;6250177;22;20035;-73
2021/10/30 01:53:09;;;;;;;2.40;0.50;;;;;;;12.53;75.34;98324.00;6279108;22;20007;-74
2021/10/30 01:55:38;;;;;;;9.02;0.90;;;;;;;12.59;75.13;98321.88;6279266;22;20464;-75
2021/10/30 01:58:04;;;;;;;4.05;0.90;;;;;;;12.57;75.47;98307.69;6302408;22;20007;-76
2021/10/30 02:00:37;;;;;;;10.15;0.60;;;;;;;12.61;74.82;98300.41;6254961;22;20007;-76
2021/10/30 02:03:03;;;;;;;2.53;0.45;;;;;;;12.59;75.29;98286.25;6304905;22;20007;-76
2021/10/30 02:05:29;;;;;;;4.30;1.00;;;;;;;12.57;74.50;98269.31;6279334;22;20252;-74
2021/10/30 02:07:54;;;;;;;4.38;0.70;;;;;;;12.69;74.56;98266.66;6278978;22;20053;-81
2021/10/30 02:10:20;;;;;;;4.22;1.15;;;;;;;12.77;74.79;98266.94;6255638;22;20037;-78
2021/10/30 02:12:45;;;;;;;2.22;0.50;;;;;;;12.84;74.29;98265.25;6251880;22;20061;-78
2021/10/30 02:15:11;;;;;;;3.38;0.63;;;;;;;12.87;74.76;98247.34;6280229;22;20277;-78
2021/10/30 02:17:37;;;;;;;0.73;0.30;;;;;;;12.90;74.69;98241.19;6277761;22;20007;-77
2021/10/30 02:20:04;;;;;;;2.50;0.88;;;;;;;12.99;74.22;98232.88;6279373;22;20026;-78
2021/10/30 02:22:30;;;;;;;4.93;0.85;;;;;;;13.02;74.36;98238.47;6279879;22;20007;-79
2021/10/30 02:24:56;;;;;;;2.83;0.85;;;;;;;13.04;74.49;98224.44;6276683;22;19999;-81
2021/10/30 02:27:21;;;;;;;5.47;0.65;;;;;;;13.07;74.07;98219.09;6229157;22;20017;-81
2021/10/30 02:29:47;;;;;;;6.53;1.08;;;;;;;13.04;74.75;98218.94;6279206;22;20043;-82
2021/10/30 02:32:12;;;;;;;6.10;0.73;;;;;;;13.04;74.41;98208.78;6283913;22;20068;-81
2021/10/30 02:34:39;;;;;;;1.55;0.43;;;;;;;13.07;74.33;98219.09;6285072;22;20043;-80
2021/10/30 02:37:05;;;;;;;5.00;1.48;;;;;;;13.05;74.13;98210.41;6281660;22;20003;-80
2021/10/30 02:39:31;;;;;;;6.60;1.08;;;;;;;13.04;74.61;98211.53;6311542;22;20023;-78
2021/10/30 02:41:57;;;;;;;4.10;1.15;;;;;;;13.02;74.35;98208.31;6281429;22;20132;-79
2021/10/30 02:44:22;;;;;;;6.25;0.55;;;;;;;13.06;74.65;98195.53;6256487;22;20015;-79
2021/10/30 02:46:47;;;;;;;8.10;1.30;;;;;;;13.04;74.69;98167.63;6261090;22;20022;-81
2021/10/30 02:49:13;;;;;;;7.60;1.30;;;;;;;13.05;74.64;98182.16;6289583;22;20140;-83
2021/10/30 02:51:38;;;;;;;2.78;0.95;;;;;;;13.02;74.64;98171.84;6257148;22;20054;-83
2021/10/30 02:54:04;;;;;;;7.88;1.05;;;;;;;13.04;74.55;98164.91;6232197;22;20034;-82
2021/10/30 02:56:30;;;;;;;6.53;0.90;;;;;;;13.09;74.02;98167.41;6258120;22;20378;-82
2021/10/30 02:58:55;;;;;;;5.65;0.98;;;;;;;12.98;73.93;98154.44;6281540;22;20003;-84
2021/10/30 03:01:21;;;;;;;2.38;0.70;;;;;;;13.13;73.96;98150.28;6282588;22;20037;-83
2021/10/30 03:03:46;;;;;;;4.10;1.08;;;;;;;13.15;73.64;98142.50;6281478;22;20007;-82
2021/10/30 03:06:12;;;;;;;5.07;0.65;;;;;;;13.12;73.41;98137.72;6308393;22;19999;-81
2021/10/30 03:08:37;;;;;;;3.30;0.90;;;;;;;13.09;73.74;98134.47;6309319;22;20041;-83
2021/10/30 03:11:03;;;;;;;9.35;1.35;;;;;;;13.09;73.18;98139.97;6239697;22;19995;-83
2021/10/30 03:13:29;;;;;;;4.63;0.93;;;;;;;13.08;73.48;98127.41;6275868;22;19991;-81
2021/10/30 03:15:55;;;;;;;8.88;1.20;;;;;;;13.01;73.75;98121.69;6303539;22;20019;-80
2021/10/30 03:18:22;;;;;;;2.58;0.70;;;;;;;13.04;73.74;98131.97;6250859;22;20457;-81
2021/10/30 03:20:48;;;;;;;13.50;1.02;;;;;;;12.98;73.63;98127.84;6291735;22;20010;-80
2021/10/30 03:23:15;;;;;;;4.30;0.90;;;;;;;12.99;73.65;98134.91;6259087;22;20004;-80
2021/10/30 03:25:48;;;;;;;2.05;0.60;;;;;;;12.91;73.27;98116.63;6263610;22;20132;-84
2021/10/30 03:28:25;;;;;;;;;;;;;;;;;;;;;
2021/10/30 03:30:51;;;;;;;4.93;1.00;;;;;;;12.86;73.56;98106.63;6316606;22;20027;-83
2021/10/30 03:33:17;;;;;;;11.20;1.55;;;;;;;12.87;73.49;98094.53;6287474;22;20325;-84
2021/10/30 03:35:43;;;;;;;3.58;0.82;;;;;;;12.92;73.90;98121.75;6269934;22;20033;-85
2021/10/30 03:38:26;;;;;;;;;;;;;;;;;;;;;
2021/10/30 03:41:02;;;;;;;;;;;;;;;;;;;;;
2021/10/30 03:43:28;;;;;;;3.95;0.70;;;;;;;12.87;73.66;98112.94;6332104;22;19995;-87
2021/10/30 03:45:54;;;;;;;5.88;0.90;;;;;;;12.83;73.58;98093.59;6303504;22;19999;-79
2021/10/30 03:48:20;;;;;;;7.78;0.70;;;;;;;12.85;73.32;98093.25;6298458;22;20018;-79
2021/10/30 03:50:47;;;;;;;1.52;0.73;;;;;;;12.89;73.48;98080.47;6287889;22;20007;-79
2021/10/30 03:53:31;;;;;;;1.77;0.47;;;;;;;12.86;73.42;98078.41;6287496;22;20030;-81
2021/10/30 03:56:01;;;;;;;2.83;0.63;;;;;;;12.73;73.49;98063.84;6289193;22;20006;-81
2021/10/30 03:58:37;;;;;;;;;;;;;;;;;;;;;
2021/10/30 04:01:03;;;;;;;2.72;0.80;;;;;;;12.77;73.53;98066.75;6315229;22;20018;-80
2021/10/30 04:03:29;;;;;;;1.45;0.55;;;;;;;12.82;73.31;98074.75;6314747;22;20031;-80
2021/10/30 04:06:04;;;;;;;2.70;0.52;;;;;;;12.90;73.88;98082.09;6261252;22;20014;-79
2021/10/30 04:08:30;;;;;;;4.95;0.85;;;;;;;12.84;74.00;98062.31;6287309;22;20045;-79
2021/10/30 04:10:55;;;;;;;2.53;0.82;;;;;;;12.79;73.56;98042.50;6286001;22;20007;-80
2021/10/30 04:13:23;;;;;;;1.60;0.45;;;;;;;12.81;73.62;98040.25;6262887;22;20393;-79
2021/10/30 04:15:49;;;;;;;7.70;1.08;;;;;;;12.83;73.41;98043.44;6287695;22;20313;-79
2021/10/30 04:18:14;;;;;;;3.67;0.95;;;;;;;12.81;73.80;98018.31;6236724;22;20017;-79
2021/10/30 04:20:40;;;;;;;1.13;0.50;;;;;;;12.90;73.42;98032.72;6286456;22;20071;-79
2021/10/30 04:23:05;;;;;;;8.98;0.98;;;;;;;12.81;73.89;98018.31;6261394;22;20026;-80
2021/10/30 04:25:31;;;;;;;4.32;0.68;;;;;;;12.87;73.72;98020.47;6285612;22;20003;-79
2021/10/30 04:27:57;;;;;;;6.78;1.13;;;;;;;12.90;73.99;98016.25;6262962;22;20042;-81
2021/10/30 04:30:40;;;;;;;;;;;;;;;;;;;;;
2021/10/30 04:33:07;;;;;;;3.42;1.48;;;;;;;12.95;73.41;98013.28;6284747;22;20091;-79
2021/10/30 04:35:38;;;;;;;10.30;0.95;;;;;;;12.92;73.74;97997.50;6309520;22;20030;-79
2021/10/30 04:38:04;;;;;;;2.15;0.70;;;;;;;13.00;74.05;97993.88;6281514;22;20015;-79
2021/10/30 04:40:30;;;;;;;1.95;0.47;;;;;;;12.96;74.04;97981.97;6258521;22;20437;-78
2021/10/30 04:42:58;;;;;;;7.35;0.77;;;;;;;12.93;74.20;97979.91;6253311;22;20007;-80
2021/10/30 04:45:23;;;;;;;1.92;0.40;;;;;;;12.93;74.27;97966.19;6282513;22;19999;-79
2021/10/30 04:47:52;;;;;;;6.97;1.80;;;;;;;12.92;74.14;97965.41;6275945;22;20018;-79
2021/10/30 04:50:17;;;;;;;7.10;0.98;;;;;;;12.97;74.69;97989.06;6228902;22;20529;-79
2021/10/30 04:52:44;;;;;;;7.35;0.70;;;;;;;12.88;75.64;97980.16;6253147;22;20045;-81
2021/10/30 04:55:13;;;;;;;4.22;0.90;;;;;;;12.82;75.76;97978.75;6278444;22;19995;-80
2021/10/30 04:57:46;;;;;;;5.43;0.95;;;;;;;12.65;76.53;97958.63;6281778;22;20038;-80
2021/10/30 05:00:12;;;;;;;3.50;0.93;;;;;;;12.65;77.16;97983.31;6253822;22;20007;-81
2021/10/30 05:02:37;;;;;;;5.97;1.00;;;;;;;12.47;77.40;97954.47;6280432;22;20003;-80
2021/10/30 05:05:03;;;;;;;5.13;1.00;;;;;;;12.52;78.35;97971.50;6275145;22;20022;-80
2021/10/30 05:07:28;;;;;;;6.65;1.00;;;;;;;12.46;79.65;97966.59;6278622;22;20353;-79
2021/10/30 05:09:54;;;;;;;3.28;0.70;;;;;;;12.42;79.72;97960.19;6276504;22;20319;-80
2021/10/30 05:12:19;;;;;;;2.47;0.93;;;;;;;12.36;80.13;97954.09;6251535;22;20441;-80
2021/10/30 05:14:50;;;;;;;3.58;0.88;;;;;;;12.31;80.92;97957.03;6280278;22;20010;-78
2021/10/30 05:17:16;;;;;;;3.38;1.00;;;;;;;12.30;81.17;97945.28;6250207;22;20014;-79
2021/10/30 05:19:44;;;;;;;5.10;1.30;;;;;;;12.32;81.27;97953.16;6280468;22;20378;-79
2021/10/30 05:22:09;;;;;;;8.23;1.33;;;;;;;12.19;82.51;97955.06;6254304;22;20037;-78
2021/10/30 05:24:35;;;;;;;4.18;0.77;;;;;;;12.14;82.53;97931.44;6279524;22;20003;-79
2021/10/30 05:27:00;;;;;;;7.00;2.15;;;;;;;12.10;82.44;97929.69;6279329;22;20064;-80
2021/10/30 05:29:35;;;;;;;15.35;2.47;;;;;;;12.17;82.68;97924.47;6279223;22;20018;-78
2021/10/30 05:32:01;;;;;;;6.90;1.15;;;;;;;12.17;82.82;97935.44;6276780;22;20000;-77
2021/10/30 05:34:26;;;;;;;4.65;1.33;;;;;;;12.13;83.65;97912.59;6278509;22;20004;-78
2021/10/30 05:36:54;;;;;;;8.30;1.50;;;;;;;12.18;83.26;97915.13;6248211;22;20072;-78
2021/10/30 05:39:23;;;;;;;2.58;1.02;;;;;;;12.01;84.10;97908.66;6276941;22;20090;-76
2021/10/30 05:41:49;;;;;;;10.02;1.27;;;;;;;12.00;84.78;97904.34;6274927;22;20563;-77
2021/10/30 05:44:14;;;;;;;3.65;1.27;;;;;;;12.09;84.94;97903.44;6303325;22;19999;-78
2021/10/30 05:46:40;;;;;;;6.35;1.60;;;;;;;11.90;85.74;97899.25;6277311;22;20060;-76
2021/10/30 05:49:07;;;;;;;7.30;1.20;;;;;;;11.89;86.00;97886.69;6277164;22;20014;-77
2021/10/30 05:51:34;;;;;;;7.43;1.55;;;;;;;11.98;85.68;97892.91;6275310;22;20010;-77
2021/10/30 05:54:03;;;;;;;7.70;1.60;;;;;;;11.98;86.58;97865.53;6278073;22;20433;-79
2021/10/30 05:56:41;;;;;;;4.88;1.77;;;;;;;11.87;86.30;97886.22;6280636;22;20052;-78
2021/10/30 05:59:34;;;;;;;;;;;;;;;;;;;;;
2021/10/30 06:02:06;;;;;;;7.30;0.85;;;;;;;11.69;86.30;97866.41;6305339;22;20074;-78
2021/10/30 06:04:35;;;;;;;6.00;1.08;;;;;;;11.82;86.96;97897.38;6277566;22;19999;-76
2021/10/30 06:07:02;;;;;;;0.82;0.32;;;;;;;11.85;86.63;97899.44;6251382;22;19999;-78
2021/10/30 06:09:28;;;;;;;1.42;0.50;;;;;;;11.75;86.80;97902.59;6303816;22;20003;-77
2021/10/30 06:12:01;;;;;;;5.68;0.52;;;;;;;11.66;86.42;97899.94;6278816;22;20004;-78
2021/10/30 06:14:27;;;;;;;4.03;0.60;;;;;;;11.54;86.81;97925.31;6277923;22;20002;-77
2021/10/30 06:16:52;;;;;;;4.57;0.70;;;;;;;11.49;87.16;97920.84;6303591;22;20074;-78
2021/10/30 06:19:18;;;;;;;4.60;0.80;;;;;;;11.42;87.14;97964.34;6228567;22;20345;-77
2021/10/30 06:21:44;;;;;;;10.43;1.00;;;;;;;11.34;87.17;97993.34;6276075;22;20064;-78
2021/10/30 06:24:09;;;;;;;7.60;0.77;;;;;;;11.35;87.63;97947.66;6278696;22;20011;-79
2021/10/30 06:26:35;;;;;;;9.43;0.98;;;;;;;11.24;87.47;97949.94;6276660;22;20023;-80
2021/10/30 06:29:04;;;;;;;6.13;0.82;;;;;;;11.12;87.39;97947.13;6305339;22;20011;-75
2021/10/30 06:31:29;;;;;;;4.03;0.40;;;;;;;11.06;87.36;97975.81;6276600;22;20074;-76
2021/10/30 06:34:04;;;;;;;1.92;0.10;;;;;;;10.79;86.89;97980.56;6306565;22;20487;-76
2021/10/30 06:36:31;;;;;;;1.20;0.32;;;;;;;10.37;86.90;97969.47;6277953;22;19999;-76
2021/10/30 06:38:59;;;;;;;0.35;0.10;;;;;;;10.31;88.01;97968.78;6280252;22;20073;-78
2021/10/30 06:41:40;;;;;;;;;;;;;;;;;;;;;
2021/10/30 06:44:28;;;;;;;0.45;0.20;;;;;;;10.08;88.12;98000.94;6304001;22;20384;-75
2021/10/30 06:47:03;;;;;;;2.75;0.38;;;;;;;10.06;88.54;98011.38;6253920;22;20007;-78
2021/10/30 06:49:29;;;;;;;0.10;0.10;;;;;;;10.05;89.12;98005.09;6277107;22;20003;-76
2021/10/30 06:51:55;;;;;;;0.40;0.10;;;;;;;10.22;89.20;98031.63;6305263;22;20060;-76
2021/10/30 06:54:20;;;;;;;0.17;0.00;;;;;;;10.17;88.98;98033.72;6305954;22;20080;-77
2021/10/30 06:56:46;;;;;;;1.25;0.20;;;;;;;10.13;88.92;98028.06;6278194;22;20019;-78
2021/10/30 06:59:11;;;;;;;1.75;0.40;;;;;;;10.28;89.36;98049.44;6279131;22;20015;-78
2021/10/30 07:01:37;;;;;;;0.38;0.20;;;;;;;10.27;89.31;98050.56;6306488;22;20322;-79
2021/10/30 07:04:07;;;;;;;0.35;0.00;;;;;;;10.23;89.05;98054.25;6280957;22;20009;-78
2021/10/30 07:06:35;;;;;;;0.45;0.10;;;;;;;10.25;89.08;98069.22;6276536;22;19999;-76
2021/10/30 07:09:03;;;;;;;0.45;0.10;;;;;;;10.19;88.88;98054.13;6277110;22;20356;-77
2021/10/30 07:11:43;;;;;;;;;;;;;;;;;;;;;
2021/10/30 07:14:22;;;;;;;;;;;;;;;;;;;;;
2021/10/30 07:17:40;;;;;;;0.03;0.00;;;;;;;10.39;89.37;98090.91;6306207;22;20473;-81
2021/10/30 07:20:36;;;;;;;0.08;0.00;;;;;;;10.38;88.96;98080.31;6228135;22;20065;-78
2021/10/30 07:23:15;;;;;;;;;;;;;;;;;;;;;
2021/10/30 07:25:51;;;;;;;;;;;;;;;;;;;;;
2021/10/30 07:28:17;;;;;;;0.15;0.10;;;;;;;10.23;88.78;98071.44;6281002;22;20082;-79
2021/10/30 07:30:45;;;;;;;0.43;0.13;;;;;;;10.24;89.17;98075.00;6248129;22;20031;-80
2021/10/30 07:33:10;;;;;;;0.10;0.00;;;;;;;10.44;89.14;98109.06;6273663;22;20613;-78
2021/10/30 07:35:36;;;;;;;4.68;0.10;;;;;;;10.33;88.97;98091.38;6272843;22;20003;-79
2021/10/30 07:38:01;;;;;;;0.52;0.32;;;;;;;10.36;88.95;98085.31;6274220;22;20015;-78
2021/10/30 07:40:28;;;;;;;1.08;0.10;;;;;;;10.44;89.16;98098.16;6252047;22;20377;-79
2021/10/30 07:42:55;;;;;;;0.65;0.10;;;;;;;10.45;89.03;98099.75;6278246;22;20003;-79
2021/10/30 07:45:21;;;;;;;0.65;0.15;;;;;;;10.40;88.59;98102.66;6305042;22;19999;-79
2021/10/30 07:47:47;;;;;;;0.20;0.10;;;;;;;10.37;88.77;98103.31;6300914;22;20014;-79
2021/10/30 07:50:13;;;;;;;2.70;0.20;;;;;;;10.31;88.92;98106.16;6277662;22;20482;-79
2021/10/30 07:52:39;;;;;;;0.95;0.20;;;;;;;10.38;88.72;98116.66;6275888;22;20090;-79
2021/10/30 07:55:08;;;;;;;0.47;0.00;;;;;;;10.35;88.33;98113.75;6250212;22;20027;-79
2021/10/30 07:57:35;;;;;;;0.20;0.00;;;;;;;10.16;88.54;98098.44;6278570;22;20003;-80
2021/10/30 08:00:00;;;;;;;0.00;0.00;;;;;;;10.19;88.16;98106.00;6251096;22;20007;-80
2021/10/30 08:02:26;;;;;;;0.15;0.00;;;;;;;10.23;88.76;98115.16;6275855;22;20013;-79
2021/10/30 08:04:54;;;;;;;0.17;0.17;;;;;;;10.20;88.79;98120.47;6276997;22;20045;-79
2021/10/30 08:07:19;;;;;;;0.20;0.10;;;;;;;10.19;88.77;98130.59;6252151;22;20003;-79
2021/10/30 08:09:45;;;;;;;0.22;0.10;;;;;;;10.29;88.44;98143.94;6251424;22;20057;-79
2021/10/30 08:15:35;;;;;;;0.20;0.10;;;;;;;10.28;88.87;98136.06;6163923;22;20045;-80
2021/10/30 08:18:13;;;;;;;1.33;0.03;;;;;;;10.39;88.96;98131.09;6304990;22;20011;-80
2021/10/30 08:21:02;;;;;;;0.90;0.10;;;;;;;10.86;90.35;98150.38;6277443;22;20406;-79
2021/10/30 08:23:35;;;;;;;0.20;0.10;;;;;;;11.51;89.34;98128.50;6277349;22;19999;-78
2021/10/30 08:26:01;;;;;;;0.13;0.10;;;;;;;12.18;87.54;98135.09;6277536;22;20039;-77
2021/10/30 08:28:27;;;;;;;0.30;0.13;;;;;;;12.86;85.49;98150.53;6276628;22;20015;-77
2021/10/30 08:30:58;;;;;;;1.13;0.17;;;;;;;13.42;83.99;98169.38;6279592;22;20337;-81
2021/10/30 08:33:56;;;;;;;;;;;;;;;;;;;;;
2021/10/30 08:36:11;;;;;;;2.88;0.10;;;;;;;14.21;80.80;98153.84;6271812;22;20034;-78
2021/10/30 08:38:37;;;;;;;1.65;0.10;;;;;;;14.66;79.81;98185.88;6278488;22;20338;-83
2021/10/30 08:41:08;;;;;;;0.00;0.00;;;;;;;15.01;78.47;98193.56;6278616;22;19995;-81
2021/10/30 08:43:34;;;;;;;0.00;0.00;;;;;;;15.35;77.43;98199.59;6306263;22;20007;-81
2021/10/30 08:46:06;;;;;;;0.00;0.00;;;;;;;15.44;76.65;98191.97;6305420;22;20003;-80
2021/10/30 08:49:01;;;;;;;;;;;;;;;;;;;;;
2021/10/30 08:51:38;;;;;;;;;;;;;;;;;;;;;
2021/10/30 08:54:04;;;;;;;0.20;0.00;;;;;;;15.50;74.97;98190.53;6310786;22;20066;-83
2021/10/30 08:56:39;;;;;;;0.77;0.10;;;;;;;15.79;74.42;98207.84;6315942;22;20025;-83
2021/10/30 08:59:07;;;;;;;0.40;0.10;;;;;;;15.88;73.33;98211.22;6291098;22;20018;-82
2021/10/30 09:01:50;;;;;;;0.22;0.10;;;;;;;16.15;73.48;98230.78;6298684;22;19991;-82
2021/10/30 09:04:17;;;;;;;0.20;0.10;;;;;;;16.33;72.18;98228.47;6329773;22;19995;-83
2021/10/30 09:06:56;;;;;;;0.20;0.00;;;;;;;16.54;71.39;98230.94;6273306;22;20007;-84
2021/10/30 09:09:21;;;;;;;0.50;0.10;;;;;;;16.64;70.97;98228.75;6283755;22;20060;-83
2021/10/30 09:11:58;;;;;;;0.55;0.13;;;;;;;16.92;69.61;98220.31;6277589;22;20003;-83
2021/10/30 09:14:25;;;;;;;0.10;0.10;;;;;;;16.93;69.90;98232.97;6277575;22;20009;-83
2021/10/30 09:17:15;;;;;;;0.30;0.20;;;;;;;17.32;68.98;98235.75;6274249;22;20426;-82
2021/10/30 09:19:59;;;;;;;0.30;0.20;;;;;;;17.42;68.65;98239.84;6278981;22;20003;-82
2021/10/30 09:22:25;;;;;;;0.30;0.00;;;;;;;17.39;67.93;98235.88;6249931;22;20011;-83
2021/10/30 09:25:01;;;;;;;0.85;0.10;;;;;;;17.46;68.21;98240.72;6251215;22;20003;-83
2021/10/30 09:28:02;;;;;;;;;;;;;;;18.01;66.96;98253.59;6276613;22;20102;-82
2021/10/30 09:30:33;;;;;;;1.65;0.10;;;;;;;17.95;65.99;98245.59;6099374;23;19908;-81
2021/10/30 09:33:11;;;;;;;0.10;0.00;;;;;;;18.07;67.05;98247.38;6224396;22;20020;-82
2021/10/30 09:35:44;;;;;;;0.10;0.10;;;;;;;18.39;67.06;98255.41;6241729;23;20007;-81
2021/10/30 09:38:36;;;;;;;0.00;0.00;;;;;;;18.84;65.16;98266.75;6243169;23;20012;-82
2021/10/30 09:41:30;;;;;;;;;;;;;;;;;;;;;
2021/10/30 09:44:04;;;;;;;0.32;0.10;;;;;;;18.73;65.01;98244.44;6243039;23;20080;-82
2021/10/30 09:46:56;;;;;;;0.85;0.05;;;;;;;19.00;64.05;98259.09;6243329;23;20004;-82
2021/10/30 09:49:46;;;;;;;;;;;;;;;;;;;;;
2021/10/30 09:52:12;;;;;;;0.80;0.57;;;;;;;18.98;62.93;98255.09;6242552;23;20071;-82
2021/10/30 09:54:45;;;;;;;0.10;0.00;;;;;;;18.93;63.40;98261.75;6218570;23;20443;-80
2021/10/30 09:57:14;;;;;;;0.25;0.20;;;;;;;19.17;64.23;98281.84;6217909;23;20083;-81
2021/10/30 09:59:40;;;;;;;0.22;0.10;;;;;;;19.33;62.49;98274.16;6244556;23;20004;-81
2021/10/30 10:02:10;;;;;;;0.93;0.10;;;;;;;19.63;60.21;98281.63;6240795;23;20359;-81
2021/10/30 10:04:38;;;;;;;0.73;0.10;;;;;;;19.81;58.82;98281.06;6219123;23;20008;-82
2021/10/30 10:07:09;;;;;;;2.28;0.17;;;;;;;20.08;58.78;98286.44;6244239;23;20004;-82
2021/10/30 10:09:36;;;;;;;1.83;0.10;;;;;;;20.17;57.45;98281.41;6239660;23;20000;-81
2021/10/30 10:12:04;;;;;;;1.20;0.10;;;;;;;20.42;56.90;98292.72;6216611;23;20015;-81
2021/10/30 10:14:33;;;;;;;0.15;0.08;;;;;;;20.64;56.66;98299.22;6217557;23;20347;-81
2021/10/30 10:16:59;;;;;;;0.00;0.00;;;;;;;20.71;54.51;98299.31;6244796;23;20018;-80
2021/10/30 10:19:45;;;;;;;1.52;0.20;;;;;;;21.05;56.32;98301.88;6243183;23;20354;-81
2021/10/30 10:22:11;;;;;;;0.20;0.20;;;;;;;21.37;56.38;98301.25;6175973;22;20019;-81
2021/10/30 10:24:41;;;;;;;0.20;0.10;;;;;;;21.78;54.38;98312.16;6255236;22;20370;-79
2021/10/30 10:27:29;;;;;;;0.45;0.20;;;;;;;22.00;53.26;98317.78;6239639;22;20079;-80
2021/10/30 10:29:56;;;;;;;0.30;0.20;;;;;;;22.40;53.39;98318.69;6295869;22;20015;-79
2021/10/30 10:32:26;;;;;;;0.45;0.10;;;;;;;22.67;51.32;98321.06;6283034;22;20552;-81
2021/10/30 10:35:03;;;;;;;0.35;0.10;;;;;;;22.88;50.16;98325.00;6280615;22;20419;-80
2021/10/30 10:37:29;;;;;;;0.75;0.10;;;;;;;23.02;50.57;98336.13;6277711;22;20021;-78
2021/10/30 10:40:01;;;;;;;0.28;0.10;;;;;;;23.26;50.32;98333.72;6305599;22;19999;-81
2021/10/30 10:42:40;;;;;;;0.20;0.10;;;;;;;23.50;47.90;98349.56;6279649;22;20027;-80
2021/10/30 10:45:06;;;;;;;0.75;0.00;;;;;;;23.49;46.05;98350.78;6309160;22;20000;-80
2021/10/30 10:47:35;;;;;;;0.28;0.00;;;;;;;23.49;47.26;98347.97;6289007;22;20004;-81
2021/10/30 10:50:15;;;;;;;1.05;0.25;;;;;;;23.72;46.29;98371.81;6287668;22;20003;-80
2021/10/30 10:52:59;;;;;;;0.35;0.10;;;;;;;23.92;45.66;98368.56;6282393;22;20003;-81
2021/10/30 10:55:32;;;;;;;0.30;0.20;;;;;;;24.15;44.44;98371.66;6282620;22;20002;-81
2021/10/30 10:58:29;;;;;;;0.20;0.15;;;;;;;24.32;45.14;98380.31;6308299;22;20070;-81
2021/10/30 11:01:17;;;;;;;0.45;0.20;;;;;;;24.61;42.28;98385.75;6274313;22;20033;-79
2021/10/30 11:04:28;;;;;;;0.30;0.15;;;;;;;24.44;42.45;98399.38;6283679;22;20007;-83
2021/10/30 11:07:13;;;;;;;2.10;0.00;;;;;;;24.65;42.02;98398.47;6280132;22;20003;-82
2021/10/30 11:10:02;;;;;;;;;;;;;;;;;;;;;
2021/10/30 11:12:46;;;;;;;;;;;;;;;;;;;;;
2021/10/30 11:15:44;;;;;;;0.40;0.10;;;;;;;25.61;41.40;98401.63;6313299;22;20405;-84
2021/10/30 11:18:44;;;;;;;;;;;;;;;;;;;;;
2021/10/30 11:21:25;;;;;;;1.25;0.10;;;;;;;25.04;39.06;98424.50;6310900;22;20102;-83
2021/10/30 11:23:53;;;;;;;1.33;0.40;;;;;;;24.96;39.64;98407.00;6262469;22;20015;-81
2021/10/30 11:26:30;;;;;;;0.47;0.10;;;;;;;25.30;39.60;98413.91;6285077;22;20010;-83
2021/10/30 11:29:13;;;;;;;1.08;0.17;;;;;;;25.40;39.24;98413.03;6285880;22;20011;-83
2021/10/30 11:31:40;;;;;;;0.73;0.73;;;;;;;25.43;36.46;98423.38;6280519;22;20086;-84
2021/10/30 11:34:11;;;;;;;0.57;0.15;;;;;;;25.08;36.53;98417.69;6282121;22;20061;-83
2021/10/30 11:36:41;;;;;;;0.10;0.10;;;;;;;25.11;36.50;98418.84;6307214;22;20386;-83
2021/10/30 11:39:09;;;;;;;0.57;0.20;;;;;;;24.47;37.01;98443.25;6280485;22;20003;-83
2021/10/30 11:41:37;;;;;;;0.60;0.10;;;;;;;24.32;37.32;98441.75;6280928;22;20077;-83
2021/10/30 11:44:29;;;;;;;;;;;;;;;;;;;;;
2021/10/30 11:46:56;;;;;;;0.20;0.20;;;;;;;23.46;36.50;98449.19;6302983;22;20079;-83
2021/10/30 11:49:33;;;;;;;1.63;0.20;;;;;;;22.44;37.45;98453.13;6280485;22;20003;-82
2021/10/30 11:52:05;;;;;;;3.42;0.55;;;;;;;22.29;38.54;98440.31;6277972;22;20003;-82
2021/10/30 11:54:32;;;;;;;1.92;0.20;;;;;;;22.99;37.99;98451.22;6278427;22;20004;-82
2021/10/30 11:57:02;;;;;;;1.77;0.20;;;;;;;23.90;36.73;98444.31;6278987;22;20456;-81
2021/10/30 11:59:27;;;;;;;0.90;0.17;;;;;;;24.85;33.99;98453.81;6274461;22;20601;-82
2021/10/30 12:01:55;;;;;;;0.68;0.15;;;;;;;24.95;33.70;98454.94;6254199;22;20018;-82
2021/10/30 12:04:50;;;;;;;;;;;;;;;;;;;;;
2021/10/30 12:07:15;;;;;;;0.55;0.20;;;;;;;26.07;31.77;98460.28;6278669;22;20497;-81
2021/10/30 12:09:46;;;;;;;0.82;0.10;;;;;;;26.92;32.05;98474.34;6254012;22;20027;-82
2021/10/30 12:12:20;;;;;;;0.22;0.10;;;;;;;27.67;28.46;98475.13;6277717;22;19999;-82
2021/10/30 12:14:51;;;;;;;0.50;0.30;;;;;;;27.68;28.74;98468.25;6278532;22;19995;-81
2021/10/30 12:17:28;;;;;;;0.20;0.10;;;;;;;27.37;28.79;98478.06;6278344;22;20086;-81